Chicago/Rockford International Airport

KRFD · Ilinóis, Estados Unidos

História da METAR KRFD · Chicago/Rockford International Airport

Abaixo você vê METARs dos últimos dias. Selecione um ano para navegar pelos METARs mais antigos, a partir do ano 2007.

24 de maio de 2024

Hora Código Clima Temp. Visibilidade Tecto Vento METAR/SPECI
20:54
V
19 °C 10 mi 25.000 ft 170° 170° 8 kt METAR KRFD 250154Z 17008KT 10SM SCT034 SCT065 OVC250 19/18 A2972 RMK AO2 RAE08 SLP059 P0000 T01940178 $
19:54
V
19 °C 10 mi 3.800 ft 150° 150° 7 kt METAR KRFD 250054Z 15007KT 10SM -RA SCT030 BKN038 BKN090 OVC140 19/18 A2970 RMK AO2 LTG DSNT E-S RAB05 SLP055 P0004 T01940183 $
18:54
V
20 °C 10 mi 9.500 ft 350° 350° 3 kt METAR KRFD 242354Z 35003KT 10SM SCT026 SCT075 OVC095 20/18 A2969 RMK AO2 LTG DSNT NE AND E AND SW RAE33 TSE53 SLP049 OCNL LTGCG DSNT NE CB DSNT NE MOV E P0001 60015 T02000183 10244 20200 55001 $
17:54
V
21 °C 10 mi 8.500 ft 130° 130° 8 - 16 kt METAR KRFD 242254Z 13008G16KT 10SM -TSRA FEW032 SCT050CB OVC085 21/18 A2965 RMK AO2 LTG DSNT ALQDS RAB01 SLP036 OCNL LTGIC N AND E TS N AND E MOV NE P0014 T02060178 $
16:54
V
23 °C 10 mi 7.500 ft 150° 150° 4 kt METAR KRFD 242154Z 15004KT 10SM TS SCT034CB BKN075 OVC250 23/17 A2968 RMK AO2 LTG DSNT S-NW RAB10E29 TSB05E33B44 SLP046 FRQ LTGCG SW-W TS SW-W MOV NE P0000 T02330167
16:34
V
23 °C 10 mi 25.000 ft Var Var 4 kt METAR KRFD 242134Z VRB04KT 10SM FEW034 SCT090 OVC250 23/17 A2966 RMK AO2 LTG DSNT NE AND SW AND W RAB10E29 TSB05E33 P0000 T02330172
16:06
V
23 °C 10 mi 9.500 ft 130° 130° 10 - 19 kt METAR KRFD 242106Z 13010G19KT 10SM TS FEW075CB BKN095 OVC250 23/16 A2970 RMK AO2 TSB05 FRQ LTGICCG OHD TS OHD MOV NE T02280161
15:54
V
23 °C 10 mi 15.000 ft 100° 100° 11 - 21 kt METAR KRFD 242054Z 10011G21KT 10SM SCT100 BKN150 OVC250 23/16 A2969 RMK AO2 LTG DSNT W AND NW SLP051 T02280161 55017
14:54
V
24 °C 10 mi 25.000 ft 100° 100° 7 - 16 kt METAR KRFD 241954Z 10007G16KT 10SM FEW030 FEW120 OVC250 24/17 A2966 RMK AO2 SLP040 T02390172
13:54
V
22 °C 10 mi 23.000 ft 100° 100° 9 - 16 kt METAR KRFD 241854Z 10009G16KT 10SM FEW050 SCT120 OVC230 22/16 A2970 RMK AO2 SLP054 T02220161
12:54
V
22 °C 10 mi 23.000 ft 050° 050° 6 kt METAR KRFD 241754Z 05006KT 10SM FEW110 SCT160 OVC230 22/17 A2974 RMK AO2 RAE16 TSE06 PRESFR SLP068 P0000 60022 T02170172 10217 20167 58037
12:12
V
19 °C 10 mi 11.000 ft 060° 060° 4 kt METAR KRFD 241712Z 06004KT 10SM -RA SCT042 SCT075 OVC110 19/17 A2980 RMK AO2 TSE06 PRESFR P0000 T01890172
11:54
V
18 °C 9 mi 9.500 ft 360° 360° 6 kt METAR KRFD 241654Z 36006KT 9SM -TSRA SCT050CB BKN095 OVC120 18/16 A2983 RMK AO2 LTG DSNT N-E SLP099 OCNL LTGIC NE-SE TS NE-SE MOV NE P0012 T01780156
10:54
V
17 °C 6 mi 4.600 ft 290° 290° 16 kt METAR KRFD 241554Z 29016KT 6SM -TSRA BKN046CB BKN070 OVC095 17/14 A2990 RMK AO2 PK WND 26029/1511 WSHFT 1509 LTG DSNT ALQDS RAB10 TSB00 SLP124 OCNL LTGICCG OHD TS OHD MOV NE P0010 T01720144
10:29
V
17 °C 5 mi 4.100 ft 260° 260° 12 - 26 kt METAR KRFD 241529Z 26012G26KT 5SM -TSRA FEW025 BKN041CB OVC080 17/14 A2993 RMK AO2 PK WND 26029/1511 WSHFT 1509 LTG DSNT ALQDS RAB10 TSB00 PRESRR OCNL LTGICCG OHD TS OHD MOV NE P0001 T01720144
10:06
V
21 °C 10 mi 6.500 ft 200° 200° 7 kt METAR KRFD 241506Z 20007KT 10SM TS FEW030 SCT037CB OVC065 21/18 A2986 RMK AO2 LTG DSNT ALQDS TSB00 OCNL LTGIC W TS W MOV NE T02110178
09:54
V
21 °C 10 mi 3.400 ft 180° 180° 6 kt METAR KRFD 241454Z 18006KT 10SM BKN034 BKN045 OVC230 21/18 A2985 RMK AO2 LTG DSNT W AND NW SLP106 T02110178 53011
08:54
V
21 °C 10 mi 23.000 ft 120° 120° 5 kt METAR KRFD 241354Z 12005KT 10SM FEW150 OVC230 21/17 A2979 RMK AO2 SLP084 T02110172
07:54
V
21 °C 10 mi 25.000 ft 110° 110° 7 kt METAR KRFD 241254Z 11007KT 10SM FEW080 OVC250 21/16 A2979 RMK AO2 SLP084 T02060161
06:54
V
19 °C 10 mi 25.000 ft 140° 140° 7 kt METAR KRFD 241154Z 14007KT 10SM FEW080 BKN250 19/15 A2982 RMK AO2 SLP094 T01940150 10194 20172 55005
05:54
V
18 °C 10 mi 25.000 ft 120° 120° 5 kt METAR KRFD 241054Z 12005KT 10SM FEW080 BKN250 18/13 A2980 RMK AO2 SLP088 T01780133
04:54
V
18 °C 10 mi 25.000 ft 120° 120° 5 kt METAR KRFD 240954Z 12005KT 10SM BKN250 18/12 A2982 RMK AO2 SLP095 T01780122
03:54
V
18 °C 10 mi 25.000 ft 130° 130° 5 kt METAR KRFD 240854Z 13005KT 10SM BKN250 18/09 A2984 RMK AO2 SLP099 T01780094 58012
02:54
V
17 °C 10 mi 20.000 ft 110° 110° 3 kt METAR KRFD 240754Z 11003KT 10SM BKN200 17/08 A2986 RMK AO2 SLP106 T01720083
01:54
V
18 °C 10 mi - 100° 100° 5 kt METAR KRFD 240654Z 10005KT 10SM FEW200 18/08 A2987 RMK AO2 SLP109 T01780083
00:54
V
18 °C 10 mi - 110° 110° 5 kt METAR KRFD 240554Z 11005KT 10SM CLR 18/08 A2987 RMK AO2 SLP111 T01830083 10267 20172 402830106 58003

23 de maio de 2024

Hora Código Clima Temp. Visibilidade Tecto Vento METAR/SPECI
23:54
V
19 °C 10 mi - 100° 100° 4 kt METAR KRFD 240454Z 10004KT 10SM CLR 19/09 A2990 RMK AO2 SLP121 T01890089
22:54
V
20 °C 10 mi - 100° 100° 5 kt METAR KRFD 240354Z 10005KT 10SM CLR 20/09 A2989 RMK AO2 SLP116 T02000089
21:54
V
21 °C 10 mi - 080° 080° 6 kt METAR KRFD 240254Z 08006KT 10SM CLR 21/09 A2988 RMK AO2 SLP114 T02110089 53010
20:54
V
17 °C 10 mi - 360° 360° 0 kt METAR KRFD 240154Z 00000KT 10SM CLR 17/09 A2987 RMK AO2 SLP112 T01720089
19:54
V
23 °C 10 mi - 020° 020° 3 kt METAR KRFD 240054Z 02003KT 10SM CLR 23/09 A2985 RMK AO2 SLP105 T02280089
18:54
V
27 °C 10 mi - 280° 280° 5 kt METAR KRFD 232354Z 28005KT 10SM CLR 27/07 A2985 RMK AO2 SLP105 T02670072 10283 20244 58012
17:54
V
27 °C 10 mi - 260° 260° 7 kt METAR KRFD 232254Z 26007KT 10SM FEW095 27/07 A2987 RMK AO2 SLP111 T02720072
16:54
V
28 °C 10 mi - 260° 260° 9 kt METAR KRFD 232154Z 26009KT 10SM FEW095 28/07 A2988 RMK AO2 SLP115 T02780067
15:54
V
28 °C 10 mi - 260° 260° 6 kt METAR KRFD 232054Z 26006KT 10SM FEW100 28/06 A2989 RMK AO2 SLP118 T02780056 58013
14:54
V
27 °C 10 mi - 280° 280° 5 kt METAR KRFD 231954Z 28005KT 10SM SCT085 27/04 A2990 RMK AO2 SLP124 T02720044
13:54
V
27 °C 10 mi - 360° 360° 0 kt METAR KRFD 231854Z 00000KT 10SM SCT085 27/07 A2991 RMK AO2 SLP126 T02670067
12:54
V
26 °C 10 mi - 180° 180° 8 kt METAR KRFD 231754Z 18008KT 10SM SCT085 26/08 A2993 RMK AO2 SLP131 T02560078 10261 20139 58007
11:54
V
23 °C 10 mi - 180° 180° 3 kt METAR KRFD 231654Z 18003KT 10SM SCT070 SCT085 23/08 A2994 RMK AO2 SLP137 T02330078
10:54
V
23 °C 10 mi - 360° 360° 0 kt METAR KRFD 231554Z 00000KT 10SM SCT065 23/09 A2994 RMK AO2 SLP136 T02330089
09:54
V
23 °C 10 mi - 200° 200° 4 kt METAR KRFD 231454Z 20004KT 10SM CLR 23/09 A2995 RMK AO2 SLP138 T02330094 50001
08:54
V
21 °C 10 mi - 170° 170° 4 kt METAR KRFD 231354Z 17004KT 10SM SCT250 21/11 A2995 RMK AO2 SLP140 T02060111
07:54
V
17 °C 10 mi - 170° 170° 3 kt METAR KRFD 231254Z 17003KT 10SM FEW250 17/11 A2995 RMK AO2 SLP139 T01670106
06:54
V
14 °C 10 mi - 360° 360° 0 kt METAR KRFD 231154Z 00000KT 10SM SCT250 14/10 A2995 RMK AO2 SLP139 T01390100 10167 20106 50000
05:54
V
11 °C 10 mi - 130° 130° 4 kt METAR KRFD 231054Z 13004KT 10SM FEW200 SCT250 11/09 A2996 RMK AO2 SLP143 T01110089
04:54
V
12 °C 10 mi - 140° 140° 3 kt METAR KRFD 230954Z 14003KT 10SM SCT250 12/09 A2995 RMK AO2 SLP138 T01170089
03:54
V
12 °C 10 mi - 130° 130° 4 kt METAR KRFD 230854Z 13004KT 10SM FEW150 12/08 A2995 RMK AO2 SLP138 T01220083 53003
02:54
V
13 °C 10 mi - 170° 170° 3 kt METAR KRFD 230754Z 17003KT 10SM CLR 13/08 A2993 RMK AO2 SLP134 T01330083
01:54
V
13 °C 10 mi - 160° 160° 3 kt METAR KRFD 230654Z 16003KT 10SM CLR 13/09 A2994 RMK AO2 SLP135 T01280089
00:54
V
16 °C 10 mi - 250° 250° 5 kt METAR KRFD 230554Z 25005KT 10SM CLR 16/08 A2994 RMK AO2 SLP135 T01610083 10228 20150 402390150 53013

22 de maio de 2024

Hora Código Clima Temp. Visibilidade Tecto Vento METAR/SPECI
23:54
V
16 °C 10 mi - 190° 190° 3 kt METAR KRFD 230454Z 19003KT 10SM CLR 16/08 A2992 RMK AO2 SLP129 T01610083
22:54
V
16 °C 10 mi - 200° 200° 4 kt METAR KRFD 230354Z 20004KT 10SM CLR 16/08 A2991 RMK AO2 SLP127 T01610078
21:54
V
17 °C 10 mi - 170° 170° 5 kt METAR KRFD 230254Z 17005KT 10SM CLR 17/08 A2990 RMK AO2 SLP122 T01670078 52024
20:54
V
19 °C 10 mi - 200° 200° 5 kt METAR KRFD 230154Z 20005KT 10SM CLR 19/07 A2987 RMK AO2 SLP114 T01890072
19:54
V
21 °C 10 mi - 250° 250° 8 kt METAR KRFD 230054Z 25008KT 10SM CLR 21/07 A2985 RMK AO2 SLP104 T02110067
18:54
V
23 °C 10 mi - 260° 260° 11 kt METAR KRFD 222354Z 26011KT 10SM CLR 23/07 A2982 RMK AO2 PK WND 27028/2255 SLP096 T02280067 10239 20211 55001
17:54
V
23 °C 10 mi - 270° 270° 17 - 27 kt METAR KRFD 222254Z 27017G27KT 10SM FEW065 23/06 A2981 RMK AO2 PK WND 27027/2244 SLP093 T02330056
16:54
V
24 °C 10 mi - 280° 280° 16 - 27 kt METAR KRFD 222154Z 28016G27KT 10SM FEW070 24/07 A2982 RMK AO2 PK WND 23027/2123 SLP095 T02390072
15:54
V
23 °C 10 mi - 280° 280° 17 - 27 kt METAR KRFD 222054Z 28017G27KT 10SM FEW070 23/07 A2983 RMK AO2 PK WND 25028/2028 SLP097 T02330067 53007
14:54
V
23 °C 10 mi - 240° 240° 16 - 23 kt METAR KRFD 221954Z 24016G23KT 10SM FEW060 23/07 A2982 RMK AO2 SLP093 T02330072
13:54
V
23 °C 10 mi - 260° 260° 14 - 22 kt METAR KRFD 221854Z 26014G22KT 10SM SCT050 23/09 A2981 RMK AO2 SLP090 T02280094
12:54
V
21 °C 10 mi - 270° 270° 17 - 26 kt METAR KRFD 221754Z 27017G26KT 10SM SCT040 21/10 A2980 RMK AO2 PK WND 29026/1742 SLP089 T02110100 10217 20150 51008
11:54
V
19 °C 10 mi 3.200 ft 280° 280° 18 - 29 kt METAR KRFD 221654Z 28018G29KT 10SM BKN032 19/10 A2980 RMK AO2 PK WND 27029/1646 SLP086 T01890100
11:33
V
19 °C 10 mi - 250° 250° 17 - 23 kt METAR KRFD 221633Z 25017G23KT 10SM SCT028 19/11 A2981 RMK AO2 PK WND 26026/1555 T01890106
10:54
M
18 °C 10 mi 2.800 ft 260° 260° 17 - 31 kt METAR KRFD 221554Z 26017G31KT 10SM OVC028 18/11 A2981 RMK AO2 PK WND 26031/1550 SLP089 T01780106
09:54
M
16 °C 10 mi 2.100 ft 250° 250° 14 - 25 kt METAR KRFD 221454Z 25014G25KT 10SM OVC021 16/11 A2978 RMK AO2 PK WND 24028/1429 SLP080 T01610106 51015
08:54
M
16 °C 10 mi 2.000 ft 240° 240° 15 - 25 kt METAR KRFD 221354Z 24015G25KT 10SM OVC020 16/10 A2977 RMK AO2 PK WND 24027/1329 SLP078 T01560100
07:54
M
15 °C 10 mi 1.900 ft 260° 260° 17 - 25 kt METAR KRFD 221254Z 26017G25KT 10SM OVC019 15/10 A2977 RMK AO2 PK WND 24028/1229 SLP076 T01500100
06:54
M
15 °C 10 mi 2.000 ft 250° 250° 15 - 24 kt METAR KRFD 221154Z 25015G24KT 10SM OVC020 15/11 A2973 RMK AO2 PK WND 26027/1107 SLP065 70002 T01500106 10211 20150 51024
05:54
M
15 °C 10 mi 2.100 ft 240° 240° 18 - 28 kt METAR KRFD 221054Z 24018G28KT 10SM OVC021 15/11 A2972 RMK AO2 PK WND 24028/1021 SLP058 T01500106 $
04:54
M
16 °C 10 mi 2.000 ft 250° 250° 15 - 22 kt METAR KRFD 220954Z 25015G22KT 10SM OVC020 16/11 A2969 RMK AO2 PK WND 25030/0900 SLP047 T01610111 $
03:54
M
17 °C 10 mi 2.600 ft 240° 240° 17 - 34 kt METAR KRFD 220854Z 24017G34KT 10SM BKN026 OVC031 17/13 A2966 RMK AO2 PK WND 24034/0846 SLP038 T01720128 51021 $
02:54
M
19 °C 10 mi 2.600 ft 220° 220° 16 - 29 kt METAR KRFD 220754Z 22016G29KT 10SM BKN026 OVC030 19/14 A2964 RMK AO2 PK WND 21030/0738 SLP032 T01940139 $
01:54
V
19 °C 10 mi - 230° 230° 14 kt METAR KRFD 220654Z 23014KT 10SM FEW039 SCT050 19/14 A2963 RMK AO2 PK WND 23032/0624 SLP027 T01940139 $
00:54
V
21 °C 10 mi - 220° 220° 17 - 29 kt METAR KRFD 220554Z 22017G29KT 10SM FEW033 SCT046 21/16 A2960 RMK AO2 PK WND 21032/0506 SLP015 60002 T02110156 10306 20211 403220178 53031 $
Relatar uma mudança